Time,TemperatureF,DewpointF,PressureIn,WindDirection,WindDirectionDegrees,WindSpeedMPH,WindSpeedGustMPH,Humidity,HourlyPrecipIn,Conditions,Clouds,dailyrainin,SoftwareType,DateUTC
2013-07-16 00:00:00,49.0,-99.9,-100.00,WNW,293,107.0,-999.0,-999,-99.99,,,0.00,,2013-07-16 06:00:00,
2013-07-16 01:00:00,49.0,-99.9,-100.00,North,-999,-999.0,-999.0,-999,-99.99,,,0.00,,2013-07-16 07:00:00,
2013-07-16 02:00:00,48.0,-99.9,-100.00,West,274,95.0,-999.0,-999,-99.99,,,0.00,,2013-07-16 08:00:00,
2013-07-16 02:52:00,48.0,-99.9,-100.00,West,274,95.0,-999.0,-999,-99.99,,,0.00,,2013-07-16 08:52:00,
2013-07-16 03:00:00,48.0,-99.9,-100.00,WNW,288,99.0,-999.0,-999,-99.99,,,0.00,,2013-07-16 09:00:00,
2013-07-16 04:00:00,48.0,-99.9,-100.00,WNW,295,100.0,-999.0,-999,-99.99,,,0.00,,2013-07-16 10:00:00,
2013-07-16 04:52:00,48.0,-99.9,-100.00,WNW,295,100.0,-999.0,-999,-99.99,,,0.00,,2013-07-16 10:52:00,
2013-07-16 05:00:00,48.0,-99.9,-100.00,West,270,97.0,-999.0,-999,-99.99,,,0.00,,2013-07-16 11:00:00,
2013-07-16 06:00:00,51.0,-99.9,-100.00,West,271,93.0,-999.0,-999,-99.99,,,-99.99,,2013-07-16 12:00:00,
2013-07-16 07:00:00,54.0,-99.9,-100.00,WSW,257,91.0,-999.0,-999,-99.99,,,0.00,,2013-07-16 13:00:00,
2013-07-16 08:00:00,59.0,-99.9,-100.00,SSW,205,75.0,-999.0,-999,-99.99,,,0.00,,2013-07-16 14:00:00,
2013-07-16 09:00:00,58.0,-99.9,-100.00,SSW,194,68.0,-999.0,-999,-99.99,,,0.00,,2013-07-16 15:00:00,
2013-07-16 10:00:00,60.0,-99.9,-100.00,South,177,64.0,-999.0,-999,-99.99,,,0.00,,2013-07-16 16:00:00,
2013-07-16 11:00:00,62.0,-99.9,-100.00,SSE,164,59.0,-999.0,-999,-99.99,,,-99.99,,2013-07-16 17:00:00,
2013-07-16 12:00:00,64.0,-99.9,-100.00,SSE,165,60.0,-999.0,-999,-99.99,,,0.00,,2013-07-16 18:00:00,
2013-07-16 13:00:00,67.0,-99.9,-100.00,SSE,156,55.0,-999.0,-999,-99.99,,,-99.99,,2013-07-16 19:00:00,
2013-07-16 14:00:00,66.0,-99.9,-100.00,North,-999,-999.0,-999.0,-999,-99.99,,,-99.99,,2013-07-16 20:00:00,
2013-07-16 15:00:00,67.0,-99.9,-100.00,SSE,163,58.0,-999.0,-999,-99.99,,,0.00,,2013-07-16 21:00:00,
2013-07-16 16:00:00,67.0,-99.9,-100.00,SSE,158,56.0,-999.0,-999,-99.99,,,-99.99,,2013-07-16 22:00:00,
2013-07-16 17:00:00,66.0,-99.9,-100.00,SSE,161,57.0,-999.0,-999,-99.99,,,0.00,,2013-07-16 23:00:00,
2013-07-16 18:00:00,65.0,-99.9,-100.00,South,171,60.0,-999.0,-999,-99.99,,,0.00,,2013-07-17 00:00:00,
2013-07-16 18:52:00,65.0,-99.9,-100.00,South,171,60.0,-999.0,-999,-99.99,,,0.00,,2013-07-17 00:52:00,
2013-07-16 19:00:00,62.0,-99.9,-100.00,North,-999,-999.0,-999.0,-999,-99.99,,,0.00,,2013-07-17 01:00:00,
2013-07-16 19:43:00,62.0,-99.9,-100.00,North,-999,-999.0,-999.0,-999,-99.99,,,0.00,,2013-07-17 01:43:00,
2013-07-16 19:53:00,62.0,-99.9,-100.00,North,-999,-999.0,-999.0,-999,-99.99,,,0.00,,2013-07-17 01:53:00,
2013-07-16 20:00:00,60.0,-99.9,-100.00,SSW,199,69.0,-999.0,-999,-99.99,,,0.00,,2013-07-17 02:00:00,
2013-07-16 20:53:00,60.0,-99.9,-100.00,SSW,199,69.0,-999.0,-999,-99.99,,,0.00,,2013-07-17 02:53:00,
2013-07-16 21:00:00,58.0,-99.9,-100.00,SSW,212,76.0,-999.0,-999,-99.99,,,0.00,,2013-07-17 03:00:00,
2013-07-16 22:00:00,56.0,-99.9,-100.00,SW,236,81.0,-999.0,-999,-99.99,,,0.00,,2013-07-17 04:00:00,
2013-07-16 22:53:00,56.0,-99.9,-100.00,SW,236,81.0,-999.0,-999,-99.99,,,0.00,,2013-07-17 04:53:00,
2013-07-16 23:00:00,54.0,-99.9,-100.00,WSW,253,88.0,-999.0,-999,-99.99,,,0.00,,2013-07-17 05:00:00,
2013-07-16 23:52:00,54.0,-99.9,-100.00,WSW,253,88.0,-999.0,-999,-99.99,,,0.00,,2013-07-17 05:52:00,